sensor_id;sensor_type;location;lat;lon;timestamp;pressure;altitude;pressure_sealevel;temperature;humidity
10706;BME280;5404;42.656;23.336;2023-04-05T00:00:20;94394.38;;;1.06;100.00
10706;BME280;5404;42.656;23.336;2023-04-05T00:02:45;94410.16;;;1.11;100.00
10706;BME280;5404;42.656;23.336;2023-04-05T00:05:10;94399.50;;;0.96;100.00
10706;BME280;5404;42.656;23.336;2023-04-05T00:07:36;94396.56;;;0.92;100.00
10706;BME280;5404;42.656;23.336;2023-04-05T00:10:02;94395.53;;;0.93;100.00
10706;BME280;5404;42.656;23.336;2023-04-05T00:12:28;94397.66;;;0.96;100.00
10706;BME280;5404;42.656;23.336;2023-04-05T00:14:53;94402.84;;;0.91;100.00
10706;BME280;5404;42.656;23.336;2023-04-05T00:17:19;94398.94;;;0.94;100.00
10706;BME280;5404;42.656;23.336;2023-04-05T00:19:47;94396.88;;;0.96;100.00
10706;BME280;5404;42.656;23.336;2023-04-05T00:22:21;94391.28;;;0.87;100.00
10706;BME280;5404;42.656;23.336;2023-04-05T00:24:50;94388.75;;;0.97;100.00
10706;BME280;5404;42.656;23.336;2023-04-05T00:27:15;94393.66;;;0.89;100.00
10706;BME280;5404;42.656;23.336;2023-04-05T00:29:40;94398.47;;;0.97;100.00
10706;BME280;5404;42.656;23.336;2023-04-05T00:32:05;94401.31;;;0.95;100.00
10706;BME280;5404;42.656;23.336;2023-04-05T00:34:31;94401.81;;;0.92;100.00
10706;BME280;5404;42.656;23.336;2023-04-05T00:36:57;94400.53;;;0.95;100.00
10706;BME280;5404;42.656;23.336;2023-04-05T00:39:23;94412.69;;;1.01;100.00
10706;BME280;5404;42.656;23.336;2023-04-05T00:41:48;94401.38;;;1.00;100.00
10706;BME280;5404;42.656;23.336;2023-04-05T00:44:13;94402.38;;;0.94;100.00
10706;BME280;5404;42.656;23.336;2023-04-05T00:46:42;94401.06;;;0.97;100.00
10706;BME280;5404;42.656;23.336;2023-04-05T00:49:07;94402.53;;;0.88;100.00
10706;BME280;5404;42.656;23.336;2023-04-05T00:51:33;94401.03;;;0.92;100.00
10706;BME280;5404;42.656;23.336;2023-04-05T00:53:59;94404.94;;;0.89;100.00
10706;BME280;5404;42.656;23.336;2023-04-05T00:56:24;94409.69;;;0.92;100.00
10706;BME280;5404;42.656;23.336;2023-04-05T00:58:50;94407.00;;;0.87;100.00
10706;BME280;5404;42.656;23.336;2023-04-05T01:01:18;94398.59;;;0.85;100.00
10706;BME280;5404;42.656;23.336;2023-04-05T01:03:46;94406.50;;;0.90;100.00
10706;BME280;5404;42.656;23.336;2023-04-05T01:09:23;94407.72;;;1.04;100.00
10706;BME280;5404;42.656;23.336;2023-04-05T01:11:27;94413.03;;;0.88;100.00
10706;BME280;5404;42.656;23.336;2023-04-05T01:13:58;94400.72;;;0.88;100.00
10706;BME280;5404;42.656;23.336;2023-04-05T01:16:24;94409.94;;;0.91;100.00
10706;BME280;5404;42.656;23.336;2023-04-05T01:18:49;94399.69;;;0.89;100.00
10706;BME280;5404;42.656;23.336;2023-04-05T01:24:12;94404.25;;;0.99;100.00
10706;BME280;5404;42.656;23.336;2023-04-05T01:31:59;94432.13;;;1.05;100.00
10706;BME280;5404;42.656;23.336;2023-04-05T01:34:39;94409.19;;;0.95;100.00
10706;BME280;5404;42.656;23.336;2023-04-05T01:37:06;94405.81;;;1.00;100.00
10706;BME280;5404;42.656;23.336;2023-04-05T01:39:32;94409.38;;;1.10;100.00
10706;BME280;5404;42.656;23.336;2023-04-05T01:41:59;94409.41;;;1.15;100.00
10706;BME280;5404;42.656;23.336;2023-04-05T01:44:25;94407.59;;;1.16;100.00
10706;BME280;5404;42.656;23.336;2023-04-05T01:46:51;94405.53;;;1.18;100.00
10706;BME280;5404;42.656;23.336;2023-04-05T01:49:17;94407.09;;;1.19;100.00
10706;BME280;5404;42.656;23.336;2023-04-05T01:51:42;94413.44;;;1.23;100.00
10706;BME280;5404;42.656;23.336;2023-04-05T01:54:09;94404.47;;;1.19;100.00
10706;BME280;5404;42.656;23.336;2023-04-05T01:56:35;94407.78;;;1.09;100.00
10706;BME280;5404;42.656;23.336;2023-04-05T01:59:01;94409.41;;;1.15;100.00
10706;BME280;5404;42.656;23.336;2023-04-05T02:01:28;94403.41;;;1.15;100.00
10706;BME280;5404;42.656;23.336;2023-04-05T02:03:54;94405.78;;;1.16;100.00
10706;BME280;5404;42.656;23.336;2023-04-05T02:06:20;94418.44;;;1.25;100.00
10706;BME280;5404;42.656;23.336;2023-04-05T02:08:45;94414.50;;;1.22;100.00
10706;BME280;5404;42.656;23.336;2023-04-05T02:11:10;94405.06;;;1.26;100.00
10706;BME280;5404;42.656;23.336;2023-04-05T02:13:35;94411.38;;;1.25;100.00
10706;BME280;5404;42.656;23.336;2023-04-05T02:16:01;94404.56;;;1.29;100.00
10706;BME280;5404;42.656;23.336;2023-04-05T02:18:26;94399.31;;;1.29;100.00
10706;BME280;5404;42.656;23.336;2023-04-05T02:21:05;94407.66;;;1.21;100.00
10706;BME280;5404;42.656;23.336;2023-04-05T02:23:30;94403.50;;;1.25;100.00
10706;BME280;5404;42.656;23.336;2023-04-05T02:25:56;94405.13;;;1.31;100.00
10706;BME280;5404;42.656;23.336;2023-04-05T02:28:22;94324.75;;;0.72;100.00
10706;BME280;5404;42.656;23.336;2023-04-05T02:30:47;94412.44;;;1.29;100.00
10706;BME280;5404;42.656;23.336;2023-04-05T02:33:12;94407.28;;;1.34;100.00
10706;BME280;5404;42.656;23.336;2023-04-05T02:35:37;94409.66;;;1.36;100.00
10706;BME280;5404;42.656;23.336;2023-04-05T02:38:03;94396.53;;;1.36;100.00
10706;BME280;5404;42.656;23.336;2023-04-05T02:40:30;94397.84;;;1.38;100.00
10706;BME280;5404;42.656;23.336;2023-04-05T02:42:55;94399.09;;;1.31;100.00
10706;BME280;5404;42.656;23.336;2023-04-05T02:45:21;94394.69;;;1.36;100.00
10706;BME280;5404;42.656;23.336;2023-04-05T02:47:46;94397.50;;;1.30;100.00
10706;BME280;5404;42.656;23.336;2023-04-05T02:50:12;94396.78;;;1.34;100.00
10706;BME280;5404;42.656;23.336;2023-04-05T02:52:37;94400.19;;;1.35;100.00
10706;BME280;5404;42.656;23.336;2023-04-05T02:55:04;94395.94;;;1.29;100.00
10706;BME280;5404;42.656;23.336;2023-04-05T02:57:30;94400.44;;;1.33;100.00
10706;BME280;5404;42.656;23.336;2023-04-05T02:59:55;94403.59;;;1.35;100.00
10706;BME280;5404;42.656;23.336;2023-04-05T03:02:22;94403.59;;;1.35;100.00
10706;BME280;5404;42.656;23.336;2023-04-05T03:04:47;94397.56;;;1.35;100.00
10706;BME280;5404;42.656;23.336;2023-04-05T03:07:13;94389.38;;;1.31;100.00
10706;BME280;5404;42.656;23.336;2023-04-05T03:09:44;94396.78;;;1.34;100.00
10706;BME280;5404;42.656;23.336;2023-04-05T03:12:10;94391.28;;;1.36;100.00
10706;BME280;5404;42.656;23.336;2023-04-05T03:14:35;94395.78;;;1.40;100.00
10706;BME280;5404;42.656;23.336;2023-04-05T03:17:01;94395.53;;;1.42;100.00
10706;BME280;5404;42.656;23.336;2023-04-05T03:19:27;94401.63;;;1.47;100.00
10706;BME280;5404;42.656;23.336;2023-04-05T03:21:52;94393.41;;;1.39;100.00
10706;BME280;5404;42.656;23.336;2023-04-05T03:24:17;94393.72;;;1.42;100.00
10706;BME280;5404;42.656;23.336;2023-04-05T03:26:44;94397.94;;;1.48;100.00
10706;BME280;5404;42.656;23.336;2023-04-05T03:29:10;94395.06;;;1.50;100.00
10706;BME280;5404;42.656;23.336;2023-04-05T03:31:35;94394.06;;;1.51;100.00
10706;BME280;5404;42.656;23.336;2023-04-05T03:34:02;94395.88;;;1.50;100.00
10706;BME280;5404;42.656;23.336;2023-04-05T03:36:28;94391.38;;;1.46;100.00
10706;BME280;5404;42.656;23.336;2023-04-05T03:38:55;94399.75;;;1.43;100.00
10706;BME280;5404;42.656;23.336;2023-04-05T03:41:21;94405.53;;;1.45;100.00
10706;BME280;5404;42.656;23.336;2023-04-05T03:43:47;94405.22;;;1.41;100.00
10706;BME280;5404;42.656;23.336;2023-04-05T03:46:13;94403.81;;;1.29;100.00
10706;BME280;5404;42.656;23.336;2023-04-05T03:48:38;94417.47;;;1.31;100.00
10706;BME280;5404;42.656;23.336;2023-04-05T03:51:04;94413.31;;;1.35;100.00
10706;BME280;5404;42.656;23.336;2023-04-05T03:53:30;94420.09;;;1.31;100.00
10706;BME280;5404;42.656;23.336;2023-04-05T03:55:56;94415.06;;;1.29;100.00
10706;BME280;5404;42.656;23.336;2023-04-05T03:58:22;94427.66;;;1.27;100.00
10706;BME280;5404;42.656;23.336;2023-04-05T04:00:47;94436.06;;;1.29;100.00
10706;BME280;5404;42.656;23.336;2023-04-05T04:03:13;94441.31;;;1.29;100.00
10706;BME280;5404;42.656;23.336;2023-04-05T04:05:39;94440.53;;;1.29;100.00
10706;BME280;5404;42.656;23.336;2023-04-05T04:08:04;94444.19;;;1.28;100.00
10706;BME280;5404;42.656;23.336;2023-04-05T04:10:30;94448.06;;;1.20;100.00
10706;BME280;5404;42.656;23.336;2023-04-05T04:12:56;94458.75;;;1.13;100.00
10706;BME280;5404;42.656;23.336;2023-04-05T04:15:24;94433.16;;;1.04;100.00
10706;BME280;5404;42.656;23.336;2023-04-05T04:17:50;94449.75;;;1.09;100.00
10706;BME280;5404;42.656;23.336;2023-04-05T04:20:15;94445.53;;;1.08;100.00
10706;BME280;5404;42.656;23.336;2023-04-05T04:22:41;94447.44;;;1.13;100.00
10706;BME280;5404;42.656;23.336;2023-04-05T04:25:08;94454.75;;;1.11;100.00
10706;BME280;5404;42.656;23.336;2023-04-05T04:27:35;94454.75;;;1.11;100.00
10706;BME280;5404;42.656;23.336;2023-04-05T04:30:00;94450.94;;;1.18;100.00
10706;BME280;5404;42.656;23.336;2023-04-05T04:32:27;94452.00;;;1.23;100.00
10706;BME280;5404;42.656;23.336;2023-04-05T04:35:14;94452.00;;;1.23;100.00
10706;BME280;5404;42.656;23.336;2023-04-05T04:37:52;94453.59;;;1.24;100.00
10706;BME280;5404;42.656;23.336;2023-04-05T04:40:19;94453.41;;;1.30;100.00
10706;BME280;5404;42.656;23.336;2023-04-05T04:42:45;94455.47;;;1.28;100.00
10706;BME280;5404;42.656;23.336;2023-04-05T04:45:14;94457.34;;;1.33;100.00
10706;BME280;5404;42.656;23.336;2023-04-05T04:47:41;94458.78;;;1.40;100.00
10706;BME280;5404;42.656;23.336;2023-04-05T04:50:07;94457.50;;;1.43;100.00
10706;BME280;5404;42.656;23.336;2023-04-05T04:52:33;94461.75;;;1.49;100.00
10706;BME280;5404;42.656;23.336;2023-04-05T04:54:59;94455.28;;;1.56;100.00
10706;BME280;5404;42.656;23.336;2023-04-05T04:57:27;94463.69;;;1.58;100.00
10706;BME280;5404;42.656;23.336;2023-04-05T04:59:53;94459.03;;;1.65;100.00
10706;BME280;5404;42.656;23.336;2023-04-05T05:02:26;94448.16;;;1.57;100.00
10706;BME280;5404;42.656;23.336;2023-04-05T05:04:51;94449.72;;;1.53;100.00
10706;BME280;5404;42.656;23.336;2023-04-05T05:07:19;94450.06;;;1.61;100.00
10706;BME280;5404;42.656;23.336;2023-04-05T05:09:46;94446.94;;;1.64;100.00
10706;BME280;5404;42.656;23.336;2023-04-05T05:12:16;94445.72;;;1.72;100.00
10706;BME280;5404;42.656;23.336;2023-04-05T05:14:41;94449.06;;;1.67;100.00
10706;BME280;5404;42.656;23.336;2023-04-05T05:17:06;94448.59;;;1.70;100.00
10706;BME280;5404;42.656;23.336;2023-04-05T05:19:32;94452.00;;;1.71;100.00
10706;BME280;5404;42.656;23.336;2023-04-05T05:21:58;94451.22;;;1.70;100.00
10706;BME280;5404;42.656;23.336;2023-04-05T05:24:23;94457.00;;;1.72;100.00
10706;BME280;5404;42.656;23.336;2023-04-05T05:26:48;94460.72;;;1.76;100.00
10706;BME280;5404;42.656;23.336;2023-04-05T05:29:14;94452.44;;;1.63;100.00
10706;BME280;5404;42.656;23.336;2023-04-05T05:31:39;94457.78;;;1.73;100.00
10706;BME280;5404;42.656;23.336;2023-04-05T05:34:05;94447.94;;;1.85;100.00
10706;BME280;5404;42.656;23.336;2023-04-05T05:36:31;94459.31;;;1.95;100.00
10706;BME280;5404;42.656;23.336;2023-04-05T05:38:56;94453.56;;;1.98;100.00
10706;BME280;5404;42.656;23.336;2023-04-05T05:41:21;94444.88;;;1.98;100.00
10706;BME280;5404;42.656;23.336;2023-04-05T05:43:47;94451.16;;;1.92;100.00
10706;BME280;5404;42.656;23.336;2023-04-05T05:46:13;94444.03;;;1.87;100.00
10706;BME280;5404;42.656;23.336;2023-04-05T05:48:39;94443.28;;;1.92;100.00
10706;BME280;5404;42.656;23.336;2023-04-05T05:51:05;94437.06;;;2.03;100.00
10706;BME280;5404;42.656;23.336;2023-04-05T05:53:37;94436.34;;;2.12;100.00
10706;BME280;5404;42.656;23.336;2023-04-05T05:56:03;94436.09;;;2.14;100.00
10706;BME280;5404;42.656;23.336;2023-04-05T05:58:30;94431.16;;;2.22;100.00
10706;BME280;5404;42.656;23.336;2023-04-05T06:00:55;94424.69;;;2.35;100.00
10706;BME280;5404;42.656;23.336;2023-04-05T06:03:21;94424.50;;;2.47;100.00
10706;BME280;5404;42.656;23.336;2023-04-05T06:05:51;94427.47;;;2.60;100.00
10706;BME280;5404;42.656;23.336;2023-04-05T06:08:17;94431.16;;;2.59;100.00
10706;BME280;5404;42.656;23.336;2023-04-05T06:10:42;94424.41;;;2.73;100.00
10706;BME280;5404;42.656;23.336;2023-04-05T06:13:07;94429.09;;;2.61;100.00
10706;BME280;5404;42.656;23.336;2023-04-05T06:15:33;94432.78;;;2.70;100.00
10706;BME280;5404;42.656;23.336;2023-04-05T06:17:59;94436.09;;;2.92;100.00
10706;BME280;5404;42.656;23.336;2023-04-05T06:20:26;94428.22;;;2.92;100.00
10706;BME280;5404;42.656;23.336;2023-04-05T06:22:51;94415.09;;;3.02;100.00
10706;BME280;5404;42.656;23.336;2023-04-05T06:25:17;94413.78;;;3.05;100.00
10706;BME280;5404;42.656;23.336;2023-04-05T06:27:42;94410.66;;;3.13;100.00
10706;BME280;5404;42.656;23.336;2023-04-05T06:30:07;94417.00;;;3.27;100.00
10706;BME280;5404;42.656;23.336;2023-04-05T06:32:33;94425.47;;;3.34;100.00
10706;BME280;5404;42.656;23.336;2023-04-05T06:34:59;94410.72;;;3.28;100.00
10706;BME280;5404;42.656;23.336;2023-04-05T06:37:24;94426.28;;;3.44;100.00
10706;BME280;5404;42.656;23.336;2023-04-05T06:39:51;94425.81;;;3.63;100.00
10706;BME280;5404;42.656;23.336;2023-04-05T06:42:16;94426.13;;;3.81;100.00
10706;BME280;5404;42.656;23.336;2023-04-05T06:44:43;94428.50;;;4.03;100.00
10706;BME280;5404;42.656;23.336;2023-04-05T06:47:10;94419.56;;;4.14;100.00
10706;BME280;5404;42.656;23.336;2023-04-05T06:49:35;94429.03;;;4.10;100.00
10706;BME280;5404;42.656;23.336;2023-04-05T06:52:02;94424.75;;;3.69;100.00
10706;BME280;5404;42.656;23.336;2023-04-05T06:54:31;94427.13;;;3.60;100.00
10706;BME280;5404;42.656;23.336;2023-04-05T06:56:57;94440.31;;;3.80;100.00
10706;BME280;5404;42.656;23.336;2023-04-05T06:59:22;94429.28;;;3.93;100.00
10706;BME280;5404;42.656;23.336;2023-04-05T07:01:47;94441.66;;;3.88;100.00
10706;BME280;5404;42.656;23.336;2023-04-05T07:04:13;94445.38;;;4.17;100.00
10706;BME280;5404;42.656;23.336;2023-04-05T07:06:38;94446.19;;;4.32;100.00
10706;BME280;5404;42.656;23.336;2023-04-05T07:09:03;94449.59;;;4.38;100.00
10706;BME280;5404;42.656;23.336;2023-04-05T07:11:29;94447.72;;;3.88;100.00
10706;BME280;5404;42.656;23.336;2023-04-05T07:13:56;94441.25;;;3.29;100.00
10706;BME280;5404;42.656;23.336;2023-04-05T07:16:22;94453.88;;;3.32;100.00
10706;BME280;5404;42.656;23.336;2023-04-05T07:18:48;94448.16;;;3.50;100.00
10706;BME280;5404;42.656;23.336;2023-04-05T07:21:13;94459.50;;;3.55;100.00
10706;BME280;5404;42.656;23.336;2023-04-05T07:23:39;94462.97;;;3.61;100.00
10706;BME280;5404;42.656;23.336;2023-04-05T07:26:05;94463.19;;;3.59;100.00
10706;BME280;5404;42.656;23.336;2023-04-05T07:28:32;94457.13;;;3.49;100.00
10706;BME280;5404;42.656;23.336;2023-04-05T07:30:59;94461.63;;;3.58;100.00
10706;BME280;5404;42.656;23.336;2023-04-05T07:33:26;94462.44;;;3.64;100.00
10706;BME280;5404;42.656;23.336;2023-04-05T07:35:52;94456.84;;;3.45;100.00
10706;BME280;5404;42.656;23.336;2023-04-05T07:38:19;94462.72;;;3.68;100.00
10706;BME280;5404;42.656;23.336;2023-04-05T07:40:49;94461.91;;;3.62;100.00
10706;BME280;5404;42.656;23.336;2023-04-05T07:43:17;94464.53;;;3.67;100.00
10706;BME280;5404;42.656;23.336;2023-04-05T07:45:42;94473.00;;;3.74;100.00
10706;BME280;5404;42.656;23.336;2023-04-05T07:48:08;94471.66;;;3.72;100.00
10706;BME280;5404;42.656;23.336;2023-04-05T07:50:33;94475.06;;;3.57;100.00
10706;BME280;5404;42.656;23.336;2023-04-05T07:52:59;94485.06;;;3.60;100.00
10706;BME280;5404;42.656;23.336;2023-04-05T07:55:24;94473.44;;;3.56;100.00
10706;BME280;5404;42.656;23.336;2023-04-05T07:57:51;94478.72;;;3.56;100.00
10706;BME280;5404;42.656;23.336;2023-04-05T08:00:17;94482.41;;;3.50;100.00
10706;BME280;5404;42.656;23.336;2023-04-05T08:02:43;94489.78;;;3.53;100.00
10706;BME280;5404;42.656;23.336;2023-04-05T08:05:10;94488.47;;;3.55;100.00
10706;BME280;5404;42.656;23.336;2023-04-05T08:07:39;94490.31;;;3.50;100.00
10706;BME280;5404;42.656;23.336;2023-04-05T08:10:05;94490.06;;;3.56;100.00
10706;BME280;5404;42.656;23.336;2023-04-05T08:12:31;94490.34;;;3.60;100.00
10706;BME280;5404;42.656;23.336;2023-04-05T08:14:56;94491.38;;;3.49;100.00
10706;BME280;5404;42.656;23.336;2023-04-05T08:17:22;94488.69;;;3.44;100.00
10706;BME280;5404;42.656;23.336;2023-04-05T08:19:51;94410.56;;;2.98;100.00
10706;BME280;5404;42.656;23.336;2023-04-05T08:22:17;94504.25;;;3.45;100.00
10706;BME280;5404;42.656;23.336;2023-04-05T08:24:43;94497.38;;;3.44;100.00
10706;BME280;5404;42.656;23.336;2023-04-05T08:27:08;94494.03;;;3.64;100.00
10706;BME280;5404;42.656;23.336;2023-04-05T08:29:33;94504.31;;;3.66;100.00
10706;BME280;5404;42.656;23.336;2023-04-05T08:31:59;94496.16;;;3.72;100.00
10706;BME280;5404;42.656;23.336;2023-04-05T08:34:24;94508.03;;;3.70;100.00
10706;BME280;5404;42.656;23.336;2023-04-05T08:36:49;94512.00;;;3.77;100.00
10706;BME280;5404;42.656;23.336;2023-04-05T08:39:15;94504.31;;;3.61;100.00
10706;BME280;5404;42.656;23.336;2023-04-05T08:41:40;94511.09;;;3.51;100.00
10706;BME280;5404;42.656;23.336;2023-04-05T08:44:10;94521.69;;;3.67;100.00
10706;BME280;5404;42.656;23.336;2023-04-05T08:46:37;94523.28;;;3.68;100.00
10706;BME280;5404;42.656;23.336;2023-04-05T08:49:04;94523.28;;;3.63;100.00
10706;BME280;5404;42.656;23.336;2023-04-05T08:51:36;94527.78;;;3.72;100.00
10706;BME280;5404;42.656;23.336;2023-04-05T08:54:03;94523.03;;;3.69;100.00
10706;BME280;5404;42.656;23.336;2023-04-05T08:56:32;94525.94;;;3.73;100.00
10706;BME280;5404;42.656;23.336;2023-04-05T09:01:29;94534.97;;;3.87;100.00
10706;BME280;5404;42.656;23.336;2023-04-05T09:03:56;94536.81;;;3.91;100.00
10706;BME280;5404;42.656;23.336;2023-04-05T09:06:23;94540.97;;;3.82;100.00
10706;BME280;5404;42.656;23.336;2023-04-05T09:08:48;94541.19;;;3.61;100.00
10706;BME280;5404;42.656;23.336;2023-04-05T09:11:15;94544.19;;;3.94;100.00
10706;BME280;5404;42.656;23.336;2023-04-05T09:13:42;94540.44;;;3.80;100.00
10706;BME280;5404;42.656;23.336;2023-04-05T09:16:07;94532.63;;;4.00;100.00
10706;BME280;5404;42.656;23.336;2023-04-05T09:18:34;94531.53;;;3.86;100.00
10706;BME280;5404;42.656;23.336;2023-04-05T09:21:04;94542.59;;;3.83;100.00
10706;BME280;5404;42.656;23.336;2023-04-05T09:23:36;94548.91;;;3.92;100.00
10706;BME280;5404;42.656;23.336;2023-04-05T09:28:47;94535.84;;;4.42;100.00
10706;BME280;5404;42.656;23.336;2023-04-05T09:34:19;94526.81;;;3.98;100.00
10706;BME280;5404;42.656;23.336;2023-04-05T09:36:45;94531.81;;;3.95;100.00
10706;BME280;5404;42.656;23.336;2023-04-05T09:39:11;94539.75;;;4.15;100.00
10706;BME280;5404;42.656;23.336;2023-04-05T09:41:36;94530.81;;;4.26;100.00
10706;BME280;5404;42.656;23.336;2023-04-05T09:44:03;94531.63;;;4.31;100.00
10706;BME280;5404;42.656;23.336;2023-04-05T09:46:32;94522.34;;;4.09;100.00
10706;BME280;5404;42.656;23.336;2023-04-05T09:48:59;94522.38;;;4.39;100.00
10706;BME280;5404;42.656;23.336;2023-04-05T09:51:34;94361.53;;;3.58;100.00
10706;BME280;5404;42.656;23.336;2023-04-05T09:54:04;94525.03;;;4.84;100.00
10706;BME280;5404;42.656;23.336;2023-04-05T09:56:30;94528.22;;;4.91;100.00
10706;BME280;5404;42.656;23.336;2023-04-05T09:58:59;94523.19;;;4.85;100.00
10706;BME280;5404;42.656;23.336;2023-04-05T10:01:31;94532.69;;;4.75;100.00
10706;BME280;5404;42.656;23.336;2023-04-05T10:03:57;94533.47;;;4.56;100.00
10706;BME280;5404;42.656;23.336;2023-04-05T10:06:38;94515.28;;;4.59;100.00
10706;BME280;5404;42.656;23.336;2023-04-05T10:09:04;94512.13;;;4.67;100.00
10706;BME280;5404;42.656;23.336;2023-04-05T10:11:34;94521.88;;;4.67;100.00
10706;BME280;5404;42.656;23.336;2023-04-05T10:14:05;94521.34;;;4.75;100.00
10706;BME280;5404;42.656;23.336;2023-04-05T10:16:32;94531.63;;;4.66;100.00
10706;BME280;5404;42.656;23.336;2023-04-05T10:18:58;94527.16;;;4.72;100.00
10706;BME280;5404;42.656;23.336;2023-04-05T10:21:28;94522.41;;;4.74;100.00
10706;BME280;5404;42.656;23.336;2023-04-05T10:24:04;94534.47;;;4.05;100.00
10706;BME280;5404;42.656;23.336;2023-04-05T10:26:39;94529.16;;;3.85;100.00
10706;BME280;5404;42.656;23.336;2023-04-05T10:29:16;94531.75;;;3.75;100.00
10706;BME280;5404;42.656;23.336;2023-04-05T10:34:15;94526.28;;;4.01;100.00
10706;BME280;5404;42.656;23.336;2023-04-05T10:36:44;94525.81;;;4.29;100.00
10706;BME280;5404;42.656;23.336;2023-04-05T10:39:29;94527.38;;;4.25;100.00
10706;BME280;5404;42.656;23.336;2023-04-05T10:42:00;94519.75;;;4.34;100.00
10706;BME280;5404;42.656;23.336;2023-04-05T10:44:28;94528.19;;;4.31;100.00
10706;BME280;5404;42.656;23.336;2023-04-05T10:46:54;94511.84;;;4.34;100.00
10706;BME280;5404;42.656;23.336;2023-04-05T10:49:36;94532.66;;;4.20;100.00
10706;BME280;5404;42.656;23.336;2023-04-05T10:52:03;94531.09;;;4.39;100.00
10706;BME280;5404;42.656;23.336;2023-04-05T10:54:33;94531.09;;;4.44;100.00
10706;BME280;5404;42.656;23.336;2023-04-05T10:57:02;94541.38;;;4.51;100.00
10706;BME280;5404;42.656;23.336;2023-04-05T10:59:28;94543.25;;;4.55;100.00
10706;BME280;5404;42.656;23.336;2023-04-05T11:01:54;94538.75;;;4.51;100.00
10706;BME280;5404;42.656;23.336;2023-04-05T11:04:20;94543.22;;;4.35;100.00
10706;BME280;5404;42.656;23.336;2023-04-05T11:06:46;94545.28;;;4.08;100.00
10706;BME280;5404;42.656;23.336;2023-04-05T11:09:18;94542.09;;;3.96;100.00
10706;BME280;5404;42.656;23.336;2023-04-05T11:11:45;94547.13;;;4.08;100.00
10706;BME280;5404;42.656;23.336;2023-04-05T11:16:55;94548.50;;;4.35;100.00
10706;BME280;5404;42.656;23.336;2023-04-05T11:22:06;94545.63;;;4.67;100.00
10706;BME280;5404;42.656;23.336;2023-04-05T11:24:50;94546.44;;;4.72;100.00
10706;BME280;5404;42.656;23.336;2023-04-05T11:27:21;94541.69;;;4.74;100.00
10706;BME280;5404;42.656;23.336;2023-04-05T11:29:48;94542.72;;;4.63;100.00
10706;BME280;5404;42.656;23.336;2023-04-05T11:32:14;94534.28;;;4.61;100.00
10706;BME280;5404;42.656;23.336;2023-04-05T11:34:43;94542.44;;;4.45;100.00
10706;BME280;5404;42.656;23.336;2023-04-05T11:37:14;94539.28;;;4.38;100.00
10706;BME280;5404;42.656;23.336;2023-04-05T11:39:39;94546.66;;;4.46;100.00
10706;BME280;5404;42.656;23.336;2023-04-05T11:42:06;94458.28;;;3.93;100.00
10706;BME280;5404;42.656;23.336;2023-04-05T11:47:05;94543.25;;;4.55;100.00
10706;BME280;5404;42.656;23.336;2023-04-05T11:49:30;94542.72;;;4.73;100.00
10706;BME280;5404;42.656;23.336;2023-04-05T11:51:55;94535.59;;;4.94;100.00
10706;BME280;5404;42.656;23.336;2023-04-05T11:54:28;94456.97;;;4.61;100.00
10706;BME280;5404;42.656;23.336;2023-04-05T11:56:53;94534.81;;;5.04;100.00
10706;BME280;5404;42.656;23.336;2023-04-05T11:59:26;94533.75;;;4.95;100.00
10706;BME280;5404;42.656;23.336;2023-04-05T12:01:56;94532.16;;;4.84;100.00
10706;BME280;5404;42.656;23.336;2023-04-05T12:04:21;94517.91;;;4.69;100.00
10706;BME280;5404;42.656;23.336;2023-04-05T12:06:48;94538.50;;;4.62;100.00
10706;BME280;5404;42.656;23.336;2023-04-05T12:09:13;94455.66;;;4.08;100.00
10706;BME280;5404;42.656;23.336;2023-04-05T12:11:39;94539.56;;;4.71;100.00
10706;BME280;5404;42.656;23.336;2023-04-05T12:14:05;94553.53;;;4.67;100.00
10706;BME280;5404;42.656;23.336;2023-04-05T12:16:30;94544.28;;;4.64;100.00
10706;BME280;5404;42.656;23.336;2023-04-05T12:18:56;94539.03;;;4.85;100.00
10706;BME280;5404;42.656;23.336;2023-04-05T12:21:25;94535.84;;;5.08;100.00
10706;BME280;5404;42.656;23.336;2023-04-05T12:23:51;94540.59;;;5.06;100.00
10706;BME280;5404;42.656;23.336;2023-04-05T12:26:17;94551.94;;;5.06;100.00
10706;BME280;5404;42.656;23.336;2023-04-05T12:28:50;94530.84;;;4.96;100.00
10706;BME280;5404;42.656;23.336;2023-04-05T12:34:02;94536.38;;;5.05;100.00
10706;BME280;5404;42.656;23.336;2023-04-05T12:36:29;94529.28;;;4.90;100.00
10706;BME280;5404;42.656;23.336;2023-04-05T12:38:56;94548.81;;;4.74;100.00
10706;BME280;5404;42.656;23.336;2023-04-05T12:41:30;94547.47;;;4.66;100.00
10706;BME280;5404;42.656;23.336;2023-04-05T12:43:58;94543.78;;;4.62;100.00
10706;BME280;5404;42.656;23.336;2023-04-05T12:46:42;94543.53;;;4.59;100.00
10706;BME280;5404;42.656;23.336;2023-04-05T12:49:11;94542.72;;;4.73;100.00
10706;BME280;5404;42.656;23.336;2023-04-05T12:51:37;94545.63;;;4.67;100.00
10706;BME280;5404;42.656;23.336;2023-04-05T12:54:05;94553.81;;;4.60;100.00
10706;BME280;5404;42.656;23.336;2023-04-05T12:56:31;94552.47;;;4.43;100.00
10706;BME280;5404;42.656;23.336;2023-04-05T12:58:59;94552.47;;;4.38;100.00
10706;BME280;5404;42.656;23.336;2023-04-05T13:01:24;94564.31;;;4.30;100.00
10706;BME280;5404;42.656;23.336;2023-04-05T13:03:50;94568.56;;;4.36;100.00
10706;BME280;5404;42.656;23.336;2023-04-05T13:06:17;94561.19;;;4.38;100.00
10706;BME280;5404;42.656;23.336;2023-04-05T13:08:42;94561.09;;;4.13;100.00
10706;BME280;5404;42.656;23.336;2023-04-05T13:11:07;94562.63;;;3.89;100.00
10706;BME280;5404;42.656;23.336;2023-04-05T13:13:32;94560.22;;;3.83;100.00
10706;BME280;5404;42.656;23.336;2023-04-05T13:15:58;94554.69;;;3.84;100.00
10706;BME280;5404;42.656;23.336;2023-04-05T13:18:23;94562.63;;;3.94;100.00
10706;BME280;5404;42.656;23.336;2023-04-05T13:20:49;94554.72;;;3.94;100.00
10706;BME280;5404;42.656;23.336;2023-04-05T13:23:15;94559.47;;;3.92;100.00
10706;BME280;5404;42.656;23.336;2023-04-05T13:25:40;94558.19;;;4.00;100.00
10706;BME280;5404;42.656;23.336;2023-04-05T13:28:06;94562.72;;;4.14;100.00
10706;BME280;5404;42.656;23.336;2023-04-05T13:30:31;94559.56;;;4.22;100.00